Terminal Aerodrome Forecast
Issued by NWS

Home | Current Version | Previous Version | Text Only | Print | Product List | Glossary Off
Versions: 1 2 3 4 5 6 7 8 9 10 11 12 13 14 15 16 17

000
FTUS43 KABR 011325 AAA
TAFATY
TAF AMD
KATY 011325Z 0113/0212 11005KT 6SM BR SCT017 OVC090
     FM012000 14010KT P6SM -RA VCTS OVC050CB
     FM020200 VRB06KT P6SM VCSH SCT070 BKN100=

USA.gov is the U.S. government's official web portal to all federal, state and local government web resources and services.